Time;durP1;ratioP1;P1;durP2;ratioP2;P2;SDS_P1;SDS_P2;PMS_P1;PMS_P2;Temp;Humidity;BMP_temperature;BMP_pressure;BME280_temperature;BME280_humidity;BME280_pressure;Samples;Min_cycle;Max_cycle;Signal;HPM_P1;HPM_P2
2022/10/12 00:01:34;;;;;;;15.45;7.60;;;;;;;9.44;91.87;102566.88;5026857;28;20022;-82
2022/10/12 00:03:59;;;;;;;13.40;7.15;;;;;;;9.41;91.48;102561.97;5032156;28;20450;-81
2022/10/12 00:06:24;;;;;;;17.05;8.55;;;;;;;9.45;91.40;102562.94;5028247;28;20037;-82
2022/10/12 00:08:52;;;;;;;14.73;7.47;;;;;;;9.36;92.71;102553.75;5025938;28;20507;-82
2022/10/12 00:11:20;;;;;;;12.20;7.05;;;;;;;9.43;91.33;102556.88;5016300;28;20053;-81
2022/10/12 00:13:46;;;;;;;9.57;7.30;;;;;;;9.45;91.01;102560.16;5030574;28;20021;-82
2022/10/12 00:16:13;;;;;;;12.25;7.35;;;;;;;9.48;91.87;102561.47;5026675;28;20113;-83
2022/10/12 00:18:39;;;;;;;11.93;6.85;;;;;;;9.41;91.35;102550.78;5023584;28;20033;-81
2022/10/12 00:21:15;;;;;;;11.40;6.75;;;;;;;9.49;90.82;102565.94;5027056;28;20029;-85
2022/10/12 00:23:43;;;;;;;11.52;7.25;;;;;;;9.49;90.73;102563.13;5029724;28;20033;-82
2022/10/12 00:26:15;;;;;;;11.65;7.00;;;;;;;9.40;91.76;102549.13;5023632;28;20026;-83
2022/10/12 00:28:40;;;;;;;15.10;7.17;;;;;;;9.48;90.32;102567.06;5021994;28;20017;-82
2022/10/12 00:31:17;;;;;;;12.95;7.70;;;;;;;9.40;92.14;102554.72;5015669;28;20275;-82
2022/10/12 00:33:43;;;;;;;12.60;6.88;;;;;;;9.44;92.55;102558.50;5028058;28;20025;-82
2022/10/12 00:36:19;;;;;;;11.60;7.85;;;;;;;9.45;92.75;102557.38;5032327;28;20025;-81
2022/10/12 00:38:46;;;;;;;15.90;9.70;;;;;;;9.47;92.89;102560.66;5023932;28;20030;-82
2022/10/12 00:41:13;;;;;;;15.50;9.10;;;;;;;9.33;92.02;102534.84;5029817;28;20419;-85
2022/10/12 00:43:40;;;;;;;25.85;14.82;;;;;;;9.40;93.57;102540.75;5028250;28;20477;-81
2022/10/12 00:46:21;;;;;;;23.90;13.57;;;;;;;9.46;92.88;102558.19;5022803;28;20029;-81
2022/10/12 00:48:52;;;;;;;23.85;14.57;;;;;;;9.35;91.75;102546.50;5023961;28;20033;-82
2022/10/12 00:51:20;;;;;;;25.73;13.88;;;;;;;9.41;92.99;102555.56;5024229;28;20496;-82
2022/10/12 00:53:51;;;;;;;37.38;16.63;;;;;;;9.43;92.95;102564.44;5026193;28;20432;-82
2022/10/12 00:56:21;;;;;;;23.77;13.50;;;;;;;9.40;92.48;102556.69;5024627;28;20060;-82
2022/10/12 00:58:49;;;;;;;24.27;16.20;;;;;;;9.39;92.38;102569.84;5018250;28;20041;-81
2022/10/12 01:01:15;;;;;;;30.08;14.85;;;;;;;9.35;91.93;102564.09;5016896;28;20026;-82
2022/10/12 01:03:41;;;;;;;23.30;13.65;;;;;;;9.31;92.71;102559.50;5019384;28;20030;-82
2022/10/12 01:06:07;;;;;;;27.98;15.15;;;;;;;9.26;92.58;102556.88;5028533;28;20033;-82
2022/10/12 01:08:33;;;;;;;27.13;13.85;;;;;;;9.33;92.41;102562.78;5039339;28;20028;-82
2022/10/12 01:10:58;;;;;;;27.23;14.90;;;;;;;9.22;91.98;102547.50;5039635;28;20028;-82
2022/10/12 01:13:24;;;;;;;23.85;14.30;;;;;;;9.23;92.28;102547.16;5020792;28;20033;-82
2022/10/12 01:16:14;;;;;;;24.45;14.27;;;;;;;9.28;92.18;102560.16;5026670;28;20031;-81
2022/10/12 01:19:00;;;;;;;25.00;15.02;;;;;;;9.24;91.76;102545.22;5045242;28;20029;-81
2022/10/12 01:21:26;;;;;;;23.45;12.77;;;;;;;9.25;92.30;102556.03;5035814;28;20030;-82
2022/10/12 01:24:13;;;;;;;20.70;12.20;;;;;;;9.25;91.49;102564.41;5026051;28;20044;-81
2022/10/12 01:26:51;;;;;;;20.48;11.40;;;;;;;9.21;91.39;102557.03;5028426;28;20441;-82
2022/10/12 01:29:29;;;;;;;26.15;13.18;;;;;;;9.19;91.23;102548.13;5038863;28;20037;-81
2022/10/12 01:31:57;;;;;;;19.45;12.02;;;;;;;9.20;90.85;102550.63;5028503;28;20041;-82
2022/10/12 01:34:29;;;;;;;16.95;10.60;;;;;;;9.16;90.89;102553.22;5025860;28;20084;-82
2022/10/12 01:37:11;;;;;;;20.20;11.05;;;;;;;9.00;91.31;102537.28;5040991;28;20159;-81
2022/10/12 01:39:58;;;;;;;25.42;11.38;;;;;;;9.13;91.18;102551.09;5025296;28;20489;-81
2022/10/12 01:42:31;;;;;;;13.82;9.35;;;;;;;8.99;90.50;102535.66;5029649;28;20171;-82
2022/10/12 01:45:06;;;;;;;19.75;9.77;;;;;;;9.10;90.94;102543.38;5025246;28;20046;-81
2022/10/12 01:47:32;;;;;;;19.10;9.73;;;;;;;9.07;90.61;102541.25;5028803;28;20026;-81
2022/10/12 01:50:00;;;;;;;12.35;8.73;;;;;;;9.05;91.19;102543.53;5025614;28;20109;-82
2022/10/12 01:52:31;;;;;;;14.23;8.95;;;;;;;8.97;90.84;102532.34;5025296;28;20364;-81
2022/10/12 01:55:32;;;;;;;16.70;9.43;;;;;;;9.01;91.16;102530.56;5023507;28;20046;-83
2022/10/12 01:58:23;;;;;;;12.13;7.85;;;;;;;9.00;91.35;102526.91;5019860;28;20493;-82
2022/10/12 02:01:17;;;;;;;15.48;7.72;;;;;;;9.02;90.85;102534.97;5019870;28;20029;-82
2022/10/12 02:03:52;;;;;;;13.63;8.98;;;;;;;8.87;91.51;102506.38;5025430;28;20080;-81
2022/10/12 02:06:22;;;;;;;14.35;7.60;;;;;;;8.86;91.55;102520.69;5036074;28;20079;-82
2022/10/12 02:08:59;;;;;;;11.70;7.68;;;;;;;8.89;92.95;102528.41;5028723;28;20021;-82
2022/10/12 02:11:25;;;;;;;14.57;7.47;;;;;;;8.97;91.86;102519.22;5028294;28;21677;-81
2022/10/12 02:14:07;;;;;;;15.43;8.23;;;;;;;8.97;91.81;102518.41;5023912;28;20036;-82
2022/10/12 02:16:41;;;;;;;17.98;7.22;;;;;;;9.02;92.00;102527.41;5025948;28;20049;-82
2022/10/12 02:19:09;;;;;;;14.20;7.57;;;;;;;8.97;92.24;102523.97;5027246;28;20057;-83
2022/10/12 02:21:35;;;;;;;16.55;7.63;;;;;;;8.83;92.35;102510.16;5025978;28;20053;-83
2022/10/12 02:24:05;;;;;;;19.98;7.43;;;;;;;8.97;92.03;102524.78;5037774;28;20412;-83
2022/10/12 02:26:34;;;;;;;11.27;7.25;;;;;;;8.86;91.62;102498.34;5027058;28;20394;-83
2022/10/12 02:29:02;;;;;;;16.23;7.85;;;;;;;9.01;91.55;102511.00;5026432;28;20029;-81
2022/10/12 02:31:35;;;;;;;13.73;7.05;;;;;;;8.98;91.70;102504.13;5016349;28;20525;-83
2022/10/12 02:34:12;;;;;;;14.15;7.38;;;;;;;8.93;91.48;102505.06;5022512;28;20033;-82
2022/10/12 02:37:03;;;;;;;10.60;7.25;;;;;;;8.96;91.75;102506.41;5021041;28;20025;-82
2022/10/12 02:39:36;;;;;;;18.02;9.00;;;;;;;8.92;92.34;102502.63;5016817;28;20486;-82
2022/10/12 02:42:12;;;;;;;15.45;8.75;;;;;;;8.94;92.11;102498.34;5023436;28;20049;-82
2022/10/12 02:44:40;;;;;;;12.35;7.57;;;;;;;8.98;91.41;102497.69;5026943;28;20040;-82
2022/10/12 02:47:07;;;;;;;14.50;7.35;;;;;;;8.88;91.18;102477.31;5025744;28;20037;-82
2022/10/12 02:49:35;;;;;;;14.10;7.68;;;;;;;8.93;91.32;102490.28;5021587;28;20037;-81
2022/10/12 02:52:03;;;;;;;14.13;7.28;;;;;;;8.91;91.20;102482.22;5021855;28;20435;-82
2022/10/12 02:54:29;;;;;;;14.82;7.57;;;;;;;8.95;91.34;102493.56;5030521;28;20448;-82
2022/10/12 02:56:55;;;;;;;13.38;7.88;;;;;;;8.93;91.32;102490.28;5026054;28;20023;-81
2022/10/12 02:59:20;;;;;;;13.77;8.25;;;;;;;8.93;92.13;102490.28;5033445;28;20028;-82
2022/10/12 03:01:46;;;;;;;12.95;6.97;;;;;;;8.93;91.54;102479.13;5037315;28;20120;-82
2022/10/12 03:04:11;;;;;;;13.65;7.70;;;;;;;8.93;90.81;102479.94;5032434;28;20033;-83
2022/10/12 03:06:36;;;;;;;11.70;7.55;;;;;;;8.96;90.84;102478.47;5036191;28;20064;-81
2022/10/12 03:09:04;;;;;;;11.68;7.35;;;;;;;8.90;90.59;102474.19;5033498;28;20396;-82
2022/10/12 03:11:30;;;;;;;14.32;6.55;;;;;;;8.89;91.52;102478.13;5030782;28;20031;-83
2022/10/12 03:13:56;;;;;;;15.50;7.10;;;;;;;8.89;91.71;102483.72;5043914;28;20029;-81
2022/10/12 03:16:22;;;;;;;18.45;7.13;;;;;;;8.86;91.16;102473.22;5028447;28;20384;-82
2022/10/12 03:18:49;;;;;;;16.08;7.55;;;;;;;8.84;90.92;102472.72;5040888;28;20428;-82
2022/10/12 03:21:14;;;;;;;10.82;7.22;;;;;;;8.88;91.48;102482.91;5032645;28;20025;-82
2022/10/12 03:23:40;;;;;;;15.25;8.73;;;;;;;8.85;91.18;102477.13;5031902;28;20033;-82
2022/10/12 03:26:06;;;;;;;15.32;7.78;;;;;;;8.74;91.01;102457.91;5026266;28;20060;-82
2022/10/12 03:28:31;;;;;;;13.32;7.03;;;;;;;8.83;90.88;102469.06;5027633;28;20021;-82
2022/10/12 03:30:58;;;;;;;20.33;8.10;;;;;;;8.73;90.88;102461.06;5025044;28;20040;-81
2022/10/12 03:33:23;;;;;;;11.07;7.32;;;;;;;8.75;91.17;102467.13;5034927;28;20094;-81
2022/10/12 03:35:49;;;;;;;10.57;7.13;;;;;;;8.74;90.68;102471.88;5031721;28;20041;-84
2022/10/12 03:38:15;;;;;;;14.43;7.25;;;;;;;8.69;90.55;102457.25;5038276;28;20021;-84
2022/10/12 03:40:41;;;;;;;16.52;9.07;;;;;;;8.73;90.29;102459.06;5030859;28;20032;-81
2022/10/12 03:43:07;;;;;;;12.50;7.57;;;;;;;8.66;90.13;102458.72;5026537;28;20033;-81
2022/10/12 03:45:32;;;;;;;12.77;7.03;;;;;;;8.72;90.90;102465.78;5050826;28;20393;-84
2022/10/12 03:47:58;;;;;;;11.93;6.95;;;;;;;8.70;90.75;102456.91;5031444;28;20025;-83
2022/10/12 03:50:23;;;;;;;10.90;6.18;;;;;;;8.62;90.14;102446.59;5030041;28;20039;-81
2022/10/12 03:52:49;;;;;;;12.05;7.28;;;;;;;8.63;89.95;102459.38;5031708;28;20020;-82
2022/10/12 03:55:14;;;;;;;11.63;7.40;;;;;;;8.64;90.50;102465.78;5036606;28;20058;-81
2022/10/12 03:57:39;;;;;;;10.82;6.78;;;;;;;8.61;90.20;102460.84;5026398;28;20036;-82
2022/10/12 04:00:06;;;;;;;13.63;6.72;;;;;;;8.64;90.09;102465.78;5024850;28;20025;-81
2022/10/12 04:02:33;;;;;;;13.75;6.68;;;;;;;8.62;90.26;102460.53;5029217;28;20103;-82
2022/10/12 04:04:58;;;;;;;12.88;7.55;;;;;;;8.58;89.96;102458.69;5028982;28;20030;-82
2022/10/12 04:07:24;;;;;;;14.35;7.45;;;;;;;8.57;90.45;102455.09;5032389;28;20029;-81
2022/10/12 04:09:49;;;;;;;14.70;7.20;;;;;;;8.59;89.93;102458.38;5021919;28;20033;-81
2022/10/12 04:12:14;;;;;;;13.02;6.72;;;;;;;8.55;90.04;102452.63;5024055;28;20021;-82
2022/10/12 04:14:40;;;;;;;9.63;6.82;;;;;;;8.57;90.23;102460.69;5027006;28;20029;-81
2022/10/12 04:17:05;;;;;;;13.25;6.57;;;;;;;8.56;90.56;102459.06;5026772;28;20482;-83
2022/10/12 04:19:31;;;;;;;12.02;6.65;;;;;;;8.47;90.33;102447.84;5021492;28;20400;-82
2022/10/12 04:21:56;;;;;;;16.42;8.25;;;;;;;8.55;89.83;102460.19;5028055;28;20128;-82
2022/10/12 04:24:22;;;;;;;15.93;6.80;;;;;;;8.54;90.10;102458.56;5025019;28;20120;-82
2022/10/12 04:26:47;;;;;;;14.68;7.07;;;;;;;8.48;89.47;102446.72;5021823;28;20039;-82
2022/10/12 04:29:13;;;;;;;8.68;6.50;;;;;;;8.48;89.33;102457.06;5017713;28;20025;-82
2022/10/12 04:31:39;;;;;;;11.43;6.65;;;;;;;8.51;90.17;102467.56;5020945;28;20116;-82
2022/10/12 04:34:04;;;;;;;11.52;6.38;;;;;;;8.44;89.61;102462.47;5020874;28;20021;-84
2022/10/12 04:36:30;;;;;;;12.05;6.80;;;;;;;8.48;89.30;102463.47;5022354;28;20108;-82
2022/10/12 04:38:55;;;;;;;15.25;7.95;;;;;;;8.40;89.45;102455.03;5026975;28;20091;-82
2022/10/12 04:41:21;;;;;;;12.65;7.53;;;;;;;8.37;89.07;102456.53;5024753;28;20403;-82
2022/10/12 04:43:46;;;;;;;11.10;6.47;;;;;;;8.39;89.82;102453.38;5027200;28;20055;-83
2022/10/12 04:46:12;;;;;;;12.18;6.50;;;;;;;8.34;89.50;102457.97;5021061;28;20025;-81
2022/10/12 04:48:38;;;;;;;12.98;6.40;;;;;;;8.33;89.44;102452.72;5022389;28;20095;-81
2022/10/12 04:51:04;;;;;;;13.60;6.80;;;;;;;8.32;89.06;102459.44;5022335;28;20953;-82
2022/10/12 04:53:30;;;;;;;15.13;7.13;;;;;;;8.34;89.18;102469.13;5020846;28;20032;-82
2022/10/12 04:55:56;;;;;;;15.35;7.90;;;;;;;8.24;89.32;102454.66;5011036;28;20480;-82
2022/10/12 04:58:22;;;;;;;13.02;6.65;;;;;;;8.27;89.07;102460.41;5025268;28;20040;-82
2022/10/12 05:00:48;;;;;;;13.25;7.15;;;;;;;8.18;88.94;102445.63;5025435;28;20061;-83
2022/10/12 05:03:14;;;;;;;11.52;7.13;;;;;;;8.28;89.26;102470.41;5012232;28;20116;-83
2022/10/12 05:05:39;;;;;;;11.82;6.82;;;;;;;8.29;88.73;102469.28;5018559;28;20124;-82
2022/10/12 05:08:05;;;;;;;17.45;7.90;;;;;;;8.27;88.72;102466.00;5023794;28;20026;-82
2022/10/12 05:10:31;;;;;;;18.27;7.65;;;;;;;8.12;88.67;102447.72;5026647;28;20026;-83
2022/10/12 05:12:57;;;;;;;13.63;6.45;;;;;;;8.19;89.00;102455.63;5023176;28;20378;-82
2022/10/12 05:15:22;;;;;;;8.15;6.90;;;;;;;8.22;88.88;102460.56;5022024;28;20030;-82
2022/10/12 05:17:47;;;;;;;14.02;6.75;;;;;;;8.16;88.98;102461.88;5022811;28;20134;-81
2022/10/12 05:20:13;;;;;;;11.30;7.07;;;;;;;8.11;89.10;102454.44;5034803;28;20116;-82
2022/10/12 05:22:39;;;;;;;13.25;7.25;;;;;;;8.12;89.21;102456.09;5022691;28;20033;-81
2022/10/12 05:25:05;;;;;;;16.52;7.68;;;;;;;8.09;88.64;102453.13;5016317;28;20108;-82
2022/10/12 05:27:30;;;;;;;12.25;6.63;;;;;;;8.10;88.90;102452.00;5023906;28;20028;-82
2022/10/12 05:29:56;;;;;;;8.77;6.63;;;;;;;8.05;88.95;102458.56;5018877;28;20033;-81
2022/10/12 05:32:21;;;;;;;11.02;7.32;;;;;;;8.04;88.40;102453.28;5022720;28;20033;-82
2022/10/12 05:34:47;;;;;;;16.15;7.22;;;;;;;8.07;88.87;102450.66;5021228;28;20432;-82
2022/10/12 05:37:12;;;;;;;12.80;7.00;;;;;;;7.90;88.27;102434.69;5017775;28;20777;-82
2022/10/12 05:39:38;;;;;;;13.13;8.45;;;;;;;8.03;88.07;102443.25;5018557;28;20068;-82
2022/10/12 05:42:03;;;;;;;9.00;6.93;;;;;;;7.96;88.50;102432.56;5020957;28;20544;-82
2022/10/12 05:44:29;;;;;;;15.95;7.40;;;;;;;7.99;88.27;102439.47;5021751;28;20497;-82
2022/10/12 05:46:54;;;;;;;11.88;6.75;;;;;;;8.00;88.32;102441.94;5018995;28;20715;-82
2022/10/12 05:49:20;;;;;;;12.20;6.85;;;;;;;7.96;88.58;102445.69;5022708;28;20026;-82
2022/10/12 05:51:45;;;;;;;8.98;7.03;;;;;;;7.97;88.44;102447.34;5020203;28;20029;-82
2022/10/12 05:54:10;;;;;;;51.17;11.07;;;;;;;8.20;93.70;102446.13;5014929;28;20021;-78
2022/10/12 05:56:36;;;;;;;15.02;6.75;;;;;;;7.98;88.26;102437.84;5014460;28;20049;-79
2022/10/12 05:59:02;;;;;;;14.75;7.05;;;;;;;7.98;90.92;102443.41;5012851;28;20037;-78
2022/10/12 06:01:28;;;;;;;11.00;6.63;;;;;;;7.91;87.60;102441.91;5010593;28;21361;-78
2022/10/12 06:03:53;;;;;;;12.00;7.15;;;;;;;7.86;87.30;102449.59;5016821;28;20498;-79
2022/10/12 06:06:19;;;;;;;10.90;6.40;;;;;;;7.82;86.68;102451.38;5004134;28;20116;-79
2022/10/12 06:08:44;;;;;;;12.48;6.95;;;;;;;7.77;87.23;102443.16;5006626;28;20040;-80
2022/10/12 06:11:10;;;;;;;16.35;7.60;;;;;;;7.79;88.02;102444.47;5019004;28;20032;-78
2022/10/12 06:13:35;;;;;;;13.20;7.03;;;;;;;7.81;87.88;102456.13;5016421;28;20061;-80
2022/10/12 06:16:00;;;;;;;15.50;7.45;;;;;;;7.73;88.23;102442.97;5018933;28;20038;-80
2022/10/12 06:18:26;;;;;;;17.10;8.90;;;;;;;7.66;89.21;102448.19;5012663;28;20025;-78
2022/10/12 06:20:53;;;;;;;13.00;8.27;;;;;;;7.58;88.57;102437.81;5026685;28;20456;-77
2022/10/12 06:23:19;;;;;;;14.95;8.55;;;;;;;7.61;89.06;102440.78;5021968;28;20059;-77
2022/10/12 06:25:46;;;;;;;14.95;8.00;;;;;;;7.59;89.36;102443.06;5020592;28;20128;-78
2022/10/12 06:28:13;;;;;;;12.80;9.00;;;;;;;7.56;89.37;102438.13;5024507;28;20021;-79
2022/10/12 06:30:38;;;;;;;14.10;9.43;;;;;;;7.56;89.90;102432.56;5024709;28;20036;-78
2022/10/12 06:33:04;;;;;;;14.00;8.13;;;;;;;7.56;90.54;102440.09;5019854;28;20038;-78
2022/10/12 06:35:29;;;;;;;19.58;8.98;;;;;;;7.47;91.43;102429.72;5027731;28;20029;-77
2022/10/12 06:37:55;;;;;;;14.77;8.77;;;;;;;7.46;91.51;102433.66;5027947;28;20100;-78
2022/10/12 06:40:20;;;;;;;13.77;8.95;;;;;;;7.41;91.97;102435.75;5022402;28;20022;-78
2022/10/12 06:42:47;;;;;;;16.23;8.73;;;;;;;7.44;92.40;102432.31;5021536;28;20465;-80
2022/10/12 06:45:13;;;;;;;17.70;8.82;;;;;;;7.39;93.01;102432.44;5019731;28;20112;-79
2022/10/12 06:47:38;;;;;;;18.58;10.25;;;;;;;7.21;95.51;102431.50;5026596;28;20035;-79
2022/10/12 06:50:04;;;;;;;19.17;9.80;;;;;;;7.17;95.64;102427.69;5020707;28;20166;-78
2022/10/12 06:52:30;;;;;;;14.50;9.38;;;;;;;7.38;94.28;102431.63;5020537;28;21325;-78
2022/10/12 06:54:55;;;;;;;19.30;9.90;;;;;;;7.56;93.91;102421.41;5031888;28;20032;-79
2022/10/12 06:57:21;;;;;;;25.25;11.18;;;;;;;7.55;94.31;102430.91;5016649;28;20196;-80
2022/10/12 06:59:46;;;;;;;17.67;9.82;;;;;;;7.62;93.70;102416.53;5018313;28;20025;-80
2022/10/12 07:02:11;;;;;;;14.18;10.05;;;;;;;7.55;94.48;102419.78;5042551;28;20025;-78
2022/10/12 07:04:37;;;;;;;16.02;10.20;;;;;;;7.50;95.25;102420.72;5027846;28;20041;-81
2022/10/12 07:07:02;;;;;;;21.95;11.52;;;;;;;7.46;96.83;102408.59;5042328;28;20487;-81
2022/10/12 07:09:28;;;;;;;22.02;10.25;;;;;;;7.46;95.63;102411.38;5023765;28;20032;-79
2022/10/12 07:11:54;;;;;;;22.27;10.25;;;;;;;7.62;94.85;102413.75;5031580;28;20024;-79
2022/10/12 07:14:20;;;;;;;20.23;9.90;;;;;;;7.57;95.82;102420.28;5030004;28;20032;-80
2022/10/12 07:16:46;;;;;;;19.23;9.75;;;;;;;7.71;94.26;102428.53;5043197;28;20481;-79
2022/10/12 07:19:12;;;;;;;21.55;10.35;;;;;;;7.71;94.40;102425.75;5031498;28;20044;-76
2022/10/12 07:21:37;;;;;;;20.50;10.30;;;;;;;7.74;93.49;102416.75;5041291;28;20040;-79
2022/10/12 07:24:03;;;;;;;27.77;11.80;;;;;;;7.78;93.50;102417.75;5030904;28;20389;-79
2022/10/12 07:26:29;;;;;;;17.20;9.52;;;;;;;7.46;95.90;102422.50;5039712;28;20029;-79
2022/10/12 07:28:54;;;;;;;14.07;9.15;;;;;;;7.64;94.71;102420.63;5024174;28;20060;-79
2022/10/12 07:31:19;;;;;;;15.80;9.60;;;;;;;7.68;94.10;102424.41;5045685;28;20039;-79
2022/10/12 07:33:45;;;;;;;18.33;9.75;;;;;;;7.79;93.61;102424.97;5045030;28;20134;-79
2022/10/12 07:36:10;;;;;;;12.82;8.27;;;;;;;7.80;93.39;102420.19;5024041;28;20061;-79
2022/10/12 07:38:35;;;;;;;18.30;10.20;;;;;;;7.86;93.61;102430.91;5030652;28;20025;-78
2022/10/12 07:41:02;;;;;;;21.40;9.63;;;;;;;7.72;94.43;102419.03;5043198;28;20488;-78
2022/10/12 07:43:29;;;;;;;23.67;11.27;;;;;;;7.60;95.26;102416.03;5038533;28;20532;-80
2022/10/12 07:45:55;;;;;;;20.58;10.98;;;;;;;7.68;94.39;102418.84;5029265;28;20035;-78
2022/10/12 07:48:21;;;;;;;19.83;10.02;;;;;;;7.78;94.06;102412.19;5038775;28;20029;-79
2022/10/12 07:50:47;;;;;;;20.70;10.98;;;;;;;7.83;93.50;102425.16;5045385;28;20113;-79
2022/10/12 07:53:12;;;;;;;22.10;10.68;;;;;;;7.84;93.60;102422.06;5047755;28;20462;-78
2022/10/12 07:55:37;;;;;;;21.75;10.60;;;;;;;7.90;93.98;102422.72;5023714;28;20056;-78
2022/10/12 07:58:03;;;;;;;22.60;11.50;;;;;;;7.71;95.01;102428.53;5025111;28;20022;-78
2022/10/12 08:00:30;;;;;;;22.20;10.50;;;;;;;7.84;93.98;102424.00;5027484;28;20105;-78
2022/10/12 08:02:55;;;;;;;18.30;10.68;;;;;;;7.84;93.77;102426.78;5033406;28;20040;-79
2022/10/12 08:05:21;;;;;;;23.00;11.35;;;;;;;7.92;93.20;102424.03;5020628;28;20658;-78
2022/10/12 08:07:48;;;;;;;19.67;11.32;;;;;;;7.97;93.26;102425.03;5023334;28;20026;-79
2022/10/12 08:10:13;;;;;;;23.02;11.35;;;;;;;7.97;93.04;102425.88;5021960;28;20025;-79
2022/10/12 08:12:39;;;;;;;20.65;11.63;;;;;;;7.85;94.17;102434.84;5027162;28;20425;-79
2022/10/12 08:15:05;;;;;;;27.13;11.55;;;;;;;7.98;93.55;102432.25;5023677;28;20112;-79
2022/10/12 08:17:30;;;;;;;23.40;12.77;;;;;;;7.84;94.98;102427.63;5016002;28;20121;-80
2022/10/12 08:19:55;;;;;;;25.63;11.20;;;;;;;7.84;94.67;102436.00;5020872;28;20044;-80
2022/10/12 08:22:21;;;;;;;20.58;10.93;;;;;;;7.93;95.48;102431.25;5026307;28;20029;-79
2022/10/12 08:24:46;;;;;;;26.20;11.88;;;;;;;7.95;93.81;102428.16;5019796;28;20038;-80
2022/10/12 08:27:12;;;;;;;19.27;11.95;;;;;;;7.99;93.52;102425.53;5019904;28;20025;-80
2022/10/12 08:29:38;;;;;;;18.63;11.25;;;;;;;8.07;93.03;102424.75;5018151;28;20030;-80
2022/10/12 08:32:04;;;;;;;23.65;11.73;;;;;;;8.12;93.46;102421.81;5023495;28;20489;-79
2022/10/12 08:34:30;;;;;;;18.90;11.38;;;;;;;8.19;93.74;102422.16;5026679;28;20025;-79
2022/10/12 08:36:57;;;;;;;21.63;12.52;;;;;;;8.17;92.57;102423.63;5026118;28;20150;-79
2022/10/12 08:39:22;;;;;;;19.70;11.98;;;;;;;8.13;92.57;102426.25;5030701;28;20056;-79
2022/10/12 08:42:06;;;;;;;22.92;12.07;;;;;;;8.24;92.16;102430.41;5029152;28;20485;-80
2022/10/12 08:44:49;;;;;;;17.77;11.70;;;;;;;8.40;92.27;102432.72;5022897;28;21255;-79
2022/10/12 08:47:30;;;;;;;19.70;11.25;;;;;;;8.45;92.70;102433.41;5021773;28;20037;-78
2022/10/12 08:49:57;;;;;;;33.15;12.98;;;;;;;8.54;92.60;102428.66;5036901;28;20025;-79
2022/10/12 08:53:00;;;;;;;20.02;10.82;;;;;;;8.62;91.31;102429.84;5031374;28;20022;-78
2022/10/12 08:55:39;;;;;;;17.02;9.55;;;;;;;8.65;90.03;102426.38;5003287;28;20067;-78
2022/10/12 08:58:15;;;;;;;18.60;10.27;;;;;;;8.68;89.71;102424.91;5051566;28;20040;-79
2022/10/12 09:00:41;;;;;;;23.02;10.88;;;;;;;8.73;89.31;102425.56;5041477;28;20041;-79
2022/10/12 09:03:24;;;;;;;22.52;11.27;;;;;;;8.83;89.86;102431.97;5026673;28;20033;-78
2022/10/12 09:06:02;;;;;;;18.98;10.57;;;;;;;8.94;90.94;102427.72;5041594;28;20031;-78
2022/10/12 09:08:31;;;;;;;22.00;10.07;;;;;;;8.95;89.42;102426.56;5044229;28;20032;-78
2022/10/12 09:11:24;;;;;;;17.05;10.68;;;;;;;9.05;89.91;102431.81;5037982;28;20057;-79
2022/10/12 09:14:02;;;;;;;24.77;11.00;;;;;;;9.11;88.75;102426.88;5039329;28;20035;-78
2022/10/12 09:16:31;;;;;;;21.35;10.85;;;;;;;9.16;88.71;102438.69;5046665;28;20491;-78
2022/10/12 09:19:11;;;;;;;16.38;10.65;;;;;;;9.14;89.38;102429.81;5046397;28;20390;-78
2022/10/12 09:21:40;;;;;;;15.32;10.13;;;;;;;9.16;89.33;102426.69;5042690;28;20032;-78
2022/10/12 09:24:16;;;;;;;14.45;9.73;;;;;;;9.30;88.62;102432.94;5040656;28;20025;-78
2022/10/12 09:26:44;;;;;;;18.25;11.02;;;;;;;9.42;88.48;102429.44;5042333;28;20033;-79
2022/10/12 09:29:25;;;;;;;18.35;10.10;;;;;;;9.43;88.58;102431.09;5044523;28;20412;-79
2022/10/12 09:32:00;;;;;;;21.02;10.57;;;;;;;9.46;88.96;102424.84;5025182;28;20469;-78
2022/10/12 09:34:26;;;;;;;18.42;10.13;;;;;;;9.67;88.39;102419.34;5040735;28;20433;-78
2022/10/12 09:36:54;;;;;;;20.75;10.73;;;;;;;9.73;87.25;102422.78;5043018;28;20036;-78
2022/10/12 09:39:26;;;;;;;24.67;10.55;;;;;;;9.83;87.26;102427.19;5042151;28;20029;-79
2022/10/12 09:41:52;;;;;;;24.88;11.48;;;;;;;10.01;88.28;102423.16;5039255;28;20025;-79
2022/10/12 09:44:35;;;;;;;24.20;11.88;;;;;;;9.89;88.31;102426.69;5040073;28;20031;-79
2022/10/12 09:47:03;;;;;;;23.08;12.23;;;;;;;9.93;88.08;102421.25;5037500;28;20132;-79
2022/10/12 09:49:43;;;;;;;24.02;11.75;;;;;;;10.17;87.99;102423.41;5039148;28;20028;-79
2022/10/12 09:52:09;;;;;;;23.10;13.13;;;;;;;10.23;87.62;102421.25;5043727;28;20111;-78
2022/10/12 09:54:40;;;;;;;23.75;10.85;;;;;;;10.21;86.61;102421.59;5028189;28;20119;-79
2022/10/12 09:57:06;;;;;;;21.38;12.57;;;;;;;10.15;87.40;102422.94;5036053;28;20489;-79
2022/10/12 09:59:41;;;;;;;22.67;11.38;;;;;;;10.14;88.42;102415.69;5024952;28;20070;-79
2022/10/12 10:02:10;;;;;;;23.90;11.95;;;;;;;10.41;87.09;102408.81;5030450;28;20044;-80
2022/10/12 10:04:36;;;;;;;21.73;12.48;;;;;;;10.61;86.47;102404.41;5024303;28;20033;-78
2022/10/12 10:07:28;;;;;;;24.20;12.02;;;;;;;10.50;86.90;102403.97;5039254;28;20029;-79
2022/10/12 10:10:09;;;;;;;18.33;12.20;;;;;;;10.54;86.61;102404.94;5022428;28;20027;-79
2022/10/12 10:12:57;;;;;;;26.63;12.00;;;;;;;10.58;85.65;102407.88;5035051;28;20359;-79
2022/10/12 10:15:31;;;;;;;28.88;11.50;;;;;;;10.73;84.65;102401.66;5010278;28;20040;-79
2022/10/12 10:18:03;;;;;;;22.40;11.65;;;;;;;10.79;83.73;102407.88;5040138;28;21130;-79
2022/10/12 10:20:43;;;;;;;15.82;10.15;;;;;;;11.27;81.99;102398.03;5040900;28;20381;-84
2022/10/12 10:23:24;;;;;;;19.75;10.45;;;;;;;11.29;82.64;102398.50;5037725;28;20040;-84
2022/10/12 10:26:01;;;;;;;19.42;10.82;;;;;;;11.32;83.35;102392.22;5023190;28;20032;-84
2022/10/12 10:28:35;;;;;;;21.73;12.18;;;;;;;11.23;83.65;102387.84;5038329;28;20028;-83
2022/10/12 10:31:20;;;;;;;21.35;12.07;;;;;;;11.55;82.27;102386.19;5039271;28;20373;-83
2022/10/12 10:34:12;;;;;;;20.85;11.80;;;;;;;11.80;82.67;102381.41;5042498;28;20381;-83
2022/10/12 10:36:50;;;;;;;23.25;10.93;;;;;;;11.67;80.56;102377.78;5024068;28;20037;-84
2022/10/12 10:39:24;;;;;;;16.90;8.52;;;;;;;11.88;79.77;102374.06;5039510;28;20037;-83
2022/10/12 10:41:50;;;;;;;24.92;10.30;;;;;;;12.00;79.32;102379.72;5040790;28;20051;-83
2022/10/12 10:44:36;;;;;;;21.35;10.38;;;;;;;12.27;77.75;102377.34;5019964;28;20031;-84
2022/10/12 10:47:11;;;;;;;20.17;8.95;;;;;;;12.02;77.46;102368.94;5024705;28;20387;-84
2022/10/12 10:49:46;;;;;;;20.50;9.75;;;;;;;12.13;77.30;102369.28;5026743;28;20374;-83
2022/10/12 10:52:30;;;;;;;13.45;8.02;;;;;;;11.98;78.48;102368.03;5019238;28;20039;-84
2022/10/12 10:55:16;;;;;;;14.90;9.88;;;;;;;12.17;78.19;102373.03;5011755;28;20148;-84
2022/10/12 10:58:00;;;;;;;25.85;9.20;;;;;;;12.18;80.07;102363.44;5008107;28;20029;-84
2022/10/12 11:00:28;;;;;;;14.02;8.95;;;;;;;12.35;79.61;102367.97;5017811;28;20537;-84
2022/10/12 11:02:56;;;;;;;23.65;9.93;;;;;;;12.15;79.72;102358.53;5017902;28;20065;-83
2022/10/12 11:05:27;;;;;;;16.70;9.80;;;;;;;12.33;78.68;102361.88;5016083;28;20481;-84
2022/10/12 11:07:56;;;;;;;14.52;9.35;;;;;;;12.59;79.55;102348.25;5016711;28;20417;-84
2022/10/12 11:10:27;;;;;;;21.40;10.88;;;;;;;12.60;78.59;102347.06;5020454;28;20056;-84
2022/10/12 11:13:20;;;;;;;17.73;9.68;;;;;;;12.96;77.80;102356.53;5013378;28;20401;-84
2022/10/12 11:16:18;;;;;;;18.33;9.80;;;;;;;13.01;78.19;102341.41;5030298;28;20332;-84
2022/10/12 11:18:46;;;;;;;17.70;9.43;;;;;;;12.98;76.88;102342.94;5024730;28;20044;-85
2022/10/12 11:21:42;;;;;;;21.25;9.85;;;;;;;12.96;79.29;102327.59;5024711;28;20060;-85
2022/10/12 11:24:19;;;;;;;23.92;9.10;;;;;;;12.96;76.03;102338.84;5018028;28;20037;-85
2022/10/12 11:27:11;;;;;;;23.23;9.55;;;;;;;13.37;75.17;102333.97;5017820;28;20032;-85
2022/10/12 11:29:37;;;;;;;18.40;9.10;;;;;;;13.34;76.31;102331.88;5016216;28;20029;-84
2022/10/12 11:32:25;;;;;;;16.63;8.48;;;;;;;13.16;75.22;102332.19;5015709;28;20405;-85
2022/10/12 11:34:56;;;;;;;16.27;8.68;;;;;;;13.45;74.84;102332.16;5017877;28;20040;-84